Time;durP1;ratioP1;P1;durP2;ratioP2;P2;SDS_P1;SDS_P2;PMS_P1;PMS_P2;Temp;Humidity;BMP_temperature;BMP_pressure;BME280_temperature;BME280_humidity;BME280_pressure;Samples;Min_cycle;Max_cycle;Signal;HPM_P1;HPM_P2
2021/08/27 00:01:32;;;;;;;18.30;8.98;;;;;;;;;;8295024;28;20053;-76
2021/08/27 00:05:38;;;;;;;61.53;9.38;;;;;;;;;;8289469;28;20371;-77
2021/08/27 00:09:43;;;;;;;25.60;9.13;;;;;;;;;;8292037;28;20395;-76
2021/08/27 00:13:48;;;;;;;19.77;9.45;;;;;;;;;;8290322;28;20486;-76
2021/08/27 00:17:52;;;;;;;23.90;9.35;;;;;;;;;;8291220;28;20467;-76
2021/08/27 00:21:57;;;;;;;48.70;9.65;;;;;;;;;;8292741;28;20053;-77
2021/08/27 00:26:02;;;;;;;46.35;8.95;;;;;;;;;;8298609;28;20479;-77
2021/08/27 00:30:09;;;;;;;22.10;9.13;;;;;;;;;;8298778;28;20056;-76
2021/08/27 00:34:14;;;;;;;42.53;9.75;;;;;;;;;;8299292;28;20459;-76
2021/08/27 00:38:20;;;;;;;28.88;10.43;;;;;;;;;;8297117;28;20347;-77
2021/08/27 00:42:25;;;;;;;24.63;11.07;;;;;;;;;;8297685;28;20589;-76
2021/08/27 00:46:30;;;;;;;39.78;10.70;;;;;;;;;;8297334;28;20482;-76
2021/08/27 00:50:35;;;;;;;26.73;10.73;;;;;;;;;;8294288;28;20341;-77
2021/08/27 00:54:49;;;;;;;23.25;9.80;;;;;;;;;;8297490;28;20357;-77
2021/08/27 00:58:54;;;;;;;26.60;10.02;;;;;;;;;;8298836;28;20067;-76
2021/08/27 01:03:01;;;;;;;23.90;10.07;;;;;;;;;;8296689;28;20494;-76
2021/08/27 01:07:26;;;;;;;22.45;10.73;;;;;;;;;;8282853;28;20378;-77
2021/08/27 01:11:53;;;;;;;23.10;9.93;;;;;;;;;;8298589;28;20463;-76
2021/08/27 01:16:16;;;;;;;22.52;9.82;;;;;;;;;;8297366;28;20330;-76
2021/08/27 01:20:37;;;;;;;20.98;9.90;;;;;;;;;;8299159;28;20498;-76
2021/08/27 01:24:48;;;;;;;27.17;10.18;;;;;;;;;;8298441;28;20052;-77
2021/08/27 01:28:57;;;;;;;21.08;10.43;;;;;;;;;;8299664;28;20405;-77
2021/08/27 01:33:15;;;;;;;22.98;9.70;;;;;;;;;;8294599;28;20375;-77
2021/08/27 01:37:23;;;;;;;22.05;9.93;;;;;;;;;;8295715;28;20506;-76
2021/08/27 01:41:31;;;;;;;21.80;9.85;;;;;;;;;;8295986;28;20394;-76
2021/08/27 01:45:38;;;;;;;17.38;9.90;;;;;;;;;;8294771;28;20049;-76
2021/08/27 01:49:47;;;;;;;16.07;8.53;;;;;;;;;;8294922;28;20386;-78
2021/08/27 01:53:53;;;;;;;14.75;8.57;;;;;;;;;;8295667;28;20355;-76
2021/08/27 01:58:04;;;;;;;14.95;7.85;;;;;;;;;;8296918;28;20044;-76
2021/08/27 02:02:14;;;;;;;17.48;8.30;;;;;;;;;;8297335;28;20360;-76
2021/08/27 02:06:22;;;;;;;14.20;7.57;;;;;;;;;;8295675;28;20367;-76
2021/08/27 02:10:28;;;;;;;15.57;7.57;;;;;;;;;;8297848;28;20456;-77
2021/08/27 02:14:36;;;;;;;11.20;6.47;;;;;;;;;;8278033;28;20479;-76
2021/08/27 02:18:42;;;;;;;;;;;;;;;;;;8295184;28;20482;-76
2021/08/27 02:22:53;;;;;;;13.85;7.38;;;;;;;;;;8294427;28;19924;-76
2021/08/27 02:26:59;;;;;;;23.92;8.35;;;;;;;;;;8294177;28;20493;-77
2021/08/27 02:31:06;;;;;;;22.17;8.50;;;;;;;;;;8294793;28;20347;-76
2021/08/27 02:35:12;;;;;;;18.23;7.75;;;;;;;;;;8294540;28;20459;-77
2021/08/27 02:39:19;;;;;;;22.92;6.82;;;;;;;;;;8277603;28;20348;-77
2021/08/27 02:43:24;;;;;;;19.55;6.93;;;;;;;;;;8293882;28;20479;-77
2021/08/27 02:47:31;;;;;;;17.27;6.57;;;;;;;;;;8291363;28;20487;-77
2021/08/27 02:51:44;;;;;;;27.02;7.05;;;;;;;;;;8291945;28;20044;-76
2021/08/27 02:56:01;;;;;;;29.15;6.88;;;;;;;;;;8291076;28;20467;-77
2021/08/27 03:00:08;;;;;;;15.63;7.17;;;;;;;;;;8293170;28;20040;-76
2021/08/27 03:04:34;;;;;;;12.43;6.23;;;;;;;;;;8293750;28;20070;-76
2021/08/27 03:08:48;;;;;;;18.95;6.28;;;;;;;;;;8292225;28;20399;-77
2021/08/27 03:13:10;;;;;;;23.02;6.68;;;;;;;;;;8293535;28;20372;-76
2021/08/27 03:17:20;;;;;;;20.40;7.05;;;;;;;;;;8293152;28;20075;-76
2021/08/27 03:21:46;;;;;;;56.67;7.13;;;;;;;;;;8292970;28;20379;-75
2021/08/27 03:25:53;;;;;;;18.52;7.53;;;;;;;;;;8292963;28;20484;-76
2021/08/27 03:30:05;;;;;;;31.10;6.30;;;;;;;;;;8293543;28;20068;-77
2021/08/27 03:34:11;;;;;;;18.17;7.18;;;;;;;;;;8294576;28;20390;-76
2021/08/27 03:38:17;;;;;;;19.40;9.65;;;;;;;;;;8292645;28;20530;-76
2021/08/27 03:42:23;;;;;;;17.95;7.22;;;;;;;;;;8292682;28;20487;-77
2021/08/27 03:46:31;;;;;;;17.17;7.05;;;;;;;;;;8291143;28;20463;-76
2021/08/27 03:50:37;;;;;;;19.30;7.38;;;;;;;;;;8274459;28;20050;-77
2021/08/27 03:54:43;;;;;;;23.05;8.18;;;;;;;;;;8291852;28;20320;-77
2021/08/27 03:58:48;;;;;;;25.67;7.38;;;;;;;;;;8295822;28;20382;-77
2021/08/27 04:02:55;;;;;;;16.55;7.88;;;;;;;;;;8296815;28;20505;-76
2021/08/27 04:07:04;;;;;;;31.02;9.05;;;;;;;;;;8300039;28;20337;-76
2021/08/27 04:11:15;;;;;;;19.80;9.38;;;;;;;;;;8301156;28;20435;-77
2021/08/27 04:15:22;;;;;;;23.90;11.55;;;;;;;;;;8299077;28;20343;-77
2021/08/27 04:19:28;;;;;;;19.90;10.75;;;;;;;;;;8297085;28;20392;-77
2021/08/27 04:23:33;;;;;;;20.70;10.48;;;;;;;;;;8300295;28;20060;-77
2021/08/27 04:27:42;;;;;;;20.55;11.00;;;;;;;;;;8301154;28;20368;-76
2021/08/27 04:31:47;;;;;;;16.33;10.07;;;;;;;;;;8301432;28;20464;-76
2021/08/27 04:35:52;;;;;;;21.95;11.52;;;;;;;;;;8296921;28;20384;-76
2021/08/27 04:39:57;;;;;;;27.23;12.27;;;;;;;;;;8299828;28;20474;-76
2021/08/27 04:44:02;;;;;;;27.85;12.43;;;;;;;;;;8299960;28;20048;-76
2021/08/27 04:48:08;;;;;;;25.55;12.15;;;;;;;;;;8297990;28;20471;-77
2021/08/27 04:52:13;;;;;;;25.42;12.27;;;;;;;;;;8296541;28;20479;-77
2021/08/27 04:56:19;;;;;;;23.67;12.20;;;;;;;;;;8297185;28;20325;-77
2021/08/27 05:00:24;;;;;;;20.38;11.07;;;;;;;;;;8296582;28;20467;-78
2021/08/27 05:04:29;;;;;;;23.40;12.40;;;;;;;;;;8296780;28;20482;-77
2021/08/27 05:08:35;;;;;;;21.42;11.95;;;;;;;;;;8295552;28;20487;-77
2021/08/27 05:12:40;;;;;;;19.33;10.95;;;;;;;;;;8295278;28;20374;-77
2021/08/27 05:16:45;;;;;;;22.70;11.90;;;;;;;;;;8296065;28;20487;-77
2021/08/27 05:20:50;;;;;;;20.83;11.65;;;;;;;;;;8298332;28;20471;-77
2021/08/27 05:24:55;;;;;;;25.13;13.02;;;;;;;;;;8294299;28;20493;-76
2021/08/27 05:29:01;;;;;;;21.48;11.80;;;;;;;;;;8296768;28;20363;-76
2021/08/27 05:33:07;;;;;;;20.70;11.10;;;;;;;;;;8297681;28;20501;-77
2021/08/27 05:37:12;;;;;;;20.20;11.02;;;;;;;;;;8299044;28;20385;-76
2021/08/27 05:41:17;;;;;;;22.77;13.05;;;;;;;;;;8297928;28;20340;-76
2021/08/27 05:45:22;;;;;;;27.23;12.07;;;;;;;;;;8297962;28;20374;-77
2021/08/27 05:49:27;;;;;;;22.02;12.02;;;;;;;;;;8280162;28;20324;-77
2021/08/27 05:53:32;;;;;;;21.05;11.88;;;;;;;;;;8296553;28;20440;-76
2021/08/27 05:57:38;;;;;;;22.60;11.68;;;;;;;;;;8296898;28;20374;-77
2021/08/27 06:01:43;;;;;;;17.80;10.25;;;;;;;;;;8295705;28;20450;-77
2021/08/27 06:05:49;;;;;;;23.52;11.18;;;;;;;;;;8296847;28;20573;-77
2021/08/27 06:09:54;;;;;;;24.77;12.05;;;;;;;;;;8291215;28;20376;-77
2021/08/27 06:13:59;;;;;;;23.80;11.40;;;;;;;;;;8291832;28;20487;-77
2021/08/27 06:18:03;;;;;;;24.23;11.38;;;;;;;;;;8294616;28;20455;-76
2021/08/27 06:22:08;;;;;;;24.17;11.07;;;;;;;;;;8292329;28;20067;-78
2021/08/27 06:26:13;;;;;;;20.85;10.32;;;;;;;;;;8296864;28;20053;-76
2021/08/27 06:30:18;;;;;;;23.08;11.65;;;;;;;;;;8294140;28;20380;-78
2021/08/27 06:34:23;;;;;;;28.60;12.20;;;;;;;;;;8295139;28;20497;-76
2021/08/27 06:38:28;;;;;;;23.95;12.57;;;;;;;;;;8293826;28;20460;-77
2021/08/27 06:42:35;;;;;;;23.27;13.00;;;;;;;;;;8296850;28;20516;-77
2021/08/27 06:46:43;;;;;;;28.80;13.68;;;;;;;;;;8294152;28;20410;-76
2021/08/27 06:50:49;;;;;;;31.52;14.30;;;;;;;;;;8275127;28;20371;-78
2021/08/27 06:54:54;;;;;;;30.30;13.82;;;;;;;;;;8294087;28;20067;-77
2021/08/27 06:58:59;;;;;;;30.17;14.68;;;;;;;;;;8294996;28;20470;-76
2021/08/27 07:03:04;;;;;;;25.85;13.60;;;;;;;;;;8293106;28;20041;-76
2021/08/27 07:07:10;;;;;;;37.50;16.73;;;;;;;;;;8292479;28;20376;-77
2021/08/27 07:11:16;;;;;;;25.77;12.88;;;;;;;;;;8294912;28;20362;-76
2021/08/27 07:15:22;;;;;;;30.48;12.40;;;;;;;;;;8290458;28;20391;-76
2021/08/27 07:19:27;;;;;;;23.55;12.40;;;;;;;;;;8294815;28;20364;-77
2021/08/27 07:23:33;;;;;;;39.97;18.90;;;;;;;;;;8292483;28;20529;-76
2021/08/27 07:27:39;;;;;;;42.08;18.88;;;;;;;;;;8292668;28;20053;-76
2021/08/27 07:31:44;;;;;;;42.80;18.75;;;;;;;;;;8295032;28;20040;-76
2021/08/27 07:35:50;;;;;;;41.45;18.20;;;;;;;;;;8296685;28;20041;-76
2021/08/27 07:39:55;;;;;;;37.15;18.10;;;;;;;;;;8295975;28;20455;-76
2021/08/27 07:44:01;;;;;;;40.78;19.23;;;;;;;;;;8295532;28;20494;-77
2021/08/27 07:48:06;;;;;;;39.05;18.38;;;;;;;;;;8296139;28;20483;-76
2021/08/27 07:52:11;;;;;;;40.03;17.73;;;;;;;;;;8295142;28;20040;-76
2021/08/27 07:56:17;;;;;;;38.63;18.23;;;;;;;;;;8278371;28;20493;-76
2021/08/27 08:00:22;;;;;;;38.63;17.00;;;;;;;;;;8296369;28;20466;-77
2021/08/27 08:04:27;;;;;;;34.67;15.50;;;;;;;;;;8296224;28;20379;-77
2021/08/27 08:08:32;;;;;;;36.08;16.80;;;;;;;;;;8297521;28;20459;-76
2021/08/27 08:12:37;;;;;;;41.20;19.13;;;;;;;;;;8295672;28;20489;-77
2021/08/27 08:16:43;;;;;;;33.65;15.60;;;;;;;;;;8293232;28;20596;-76
2021/08/27 08:20:48;;;;;;;36.00;16.00;;;;;;;;;;8295219;28;20401;-77
2021/08/27 08:24:53;;;;;;;36.63;15.18;;;;;;;;;;8293771;28;20475;-76
2021/08/27 08:34:37;;;;;;;30.27;14.50;;;;;;;;;;8295025;28;20474;-76
2021/08/27 08:38:42;;;;;;;29.35;13.32;;;;;;;;;;8276401;28;20371;-75
2021/08/27 08:42:48;;;;;;;24.35;12.85;;;;;;;;;;8293847;28;20468;-76
2021/08/27 08:46:56;;;;;;;24.52;12.38;;;;;;;;;;8289752;28;20352;-76
2021/08/27 08:51:05;;;;;;;;;;;;;;;;;;8293743;28;20455;-77
2021/08/27 08:55:11;;;;;;;23.35;13.13;;;;;;;;;;8294031;28;20312;-77
2021/08/27 08:59:16;;;;;;;29.92;11.70;;;;;;;;;;8291757;28;20466;-75
2021/08/27 09:03:21;;;;;;;18.80;11.00;;;;;;;;;;8275328;28;20070;-76
2021/08/27 09:07:28;;;;;;;16.65;9.85;;;;;;;;;;8294263;28;20368;-76
2021/08/27 09:11:33;;;;;;;18.15;10.90;;;;;;;;;;8292550;28;20415;-75
2021/08/27 09:15:39;;;;;;;13.77;9.50;;;;;;;;;;8294089;28;20478;-76
2021/08/27 09:19:55;;;;;;;17.15;9.70;;;;;;;;;;8292777;28;20456;-76
2021/08/27 09:24:22;;;;;;;18.17;9.85;;;;;;;;;;8293093;28;20045;-75
2021/08/27 09:28:27;;;;;;;25.27;10.68;;;;;;;;;;8294333;28;20382;-75
2021/08/27 09:32:33;;;;;;;21.42;11.82;;;;;;;;;;8292839;28;20390;-77
2021/08/27 09:36:38;;;;;;;23.95;13.00;;;;;;;;;;8292805;28;20390;-75
2021/08/27 09:40:48;;;;;;;19.23;12.68;;;;;;;;;;8293894;28;20364;-77
2021/08/27 09:44:54;;;;;;;23.52;13.15;;;;;;;;;;8294296;28;20371;-75
2021/08/27 09:48:59;;;;;;;26.17;13.55;;;;;;;;;;8292617;28;20060;-76
2021/08/27 09:53:12;;;;;;;19.83;13.30;;;;;;;;;;8252059;28;20126;-75
2021/08/27 09:57:28;;;;;;;23.98;12.80;;;;;;;;;;8290381;28;20398;-76
2021/08/27 10:01:47;;;;;;;15.18;9.90;;;;;;;;;;8291586;28;20363;-76
2021/08/27 10:05:54;;;;;;;19.65;10.80;;;;;;;;;;8290783;28;20494;-76
2021/08/27 10:10:01;;;;;;;17.83;9.45;;;;;;;;;;8291040;28;20470;-76
2021/08/27 10:14:06;;;;;;;18.60;10.15;;;;;;;;;;8290829;28;20475;-77
2021/08/27 10:18:12;;;;;;;16.63;8.82;;;;;;;;;;8291024;28;20367;-75
2021/08/27 10:22:17;;;;;;;11.13;6.38;;;;;;;;;;8292724;28;20359;-77
2021/08/27 10:26:26;;;;;;;12.23;7.22;;;;;;;;;;8232389;28;20394;-76
2021/08/27 10:30:50;;;;;;;10.60;6.07;;;;;;;;;;8272962;28;20391;-76
2021/08/27 10:34:55;;;;;;;7.28;5.30;;;;;;;;;;8289024;28;20468;-76
2021/08/27 10:39:02;;;;;;;8.48;5.93;;;;;;;;;;8289763;28;20490;-76
2021/08/27 10:43:08;;;;;;;11.98;6.32;;;;;;;;;;8277663;28;20040;-77
2021/08/27 10:47:12;;;;;;;11.18;6.43;;;;;;;;;;8260423;28;20353;-77
2021/08/27 10:51:38;;;;;;;10.05;7.40;;;;;;;;;;8272808;28;20037;-77
2021/08/27 10:55:44;;;;;;;9.90;6.28;;;;;;;;;;8278848;28;20478;-76
2021/08/27 10:59:49;;;;;;;13.63;6.65;;;;;;;;;;8287569;28;20483;-76
2021/08/27 11:04:03;;;;;;;9.88;6.50;;;;;;;;;;8290838;28;20440;-76
2021/08/27 11:08:18;;;;;;;10.75;6.78;;;;;;;;;;8269642;28;20064;-77
2021/08/27 11:12:30;;;;;;;10.00;5.65;;;;;;;;;;8253180;28;20079;-77
2021/08/27 11:16:40;;;;;;;9.70;5.80;;;;;;;;;;8290871;28;20052;-77
2021/08/27 11:20:47;;;;;;;9.48;5.05;;;;;;;;;;8291227;28;20380;-77
2021/08/27 11:25:04;;;;;;;6.80;4.95;;;;;;;;;;8288216;28;20466;-77
2021/08/27 11:29:48;;;;;;;10.63;5.35;;;;;;;;;;8291027;28;20404;-77
2021/08/27 11:33:54;;;;;;;6.90;4.65;;;;;;;;;;8289262;28;20440;-77
2021/08/27 11:38:04;;;;;;;7.15;4.57;;;;;;;;;;8279373;28;20071;-77
2021/08/27 11:42:09;;;;;;;28.90;14.48;;;;;;;;;;8271705;28;20044;-77
2021/08/27 11:46:20;;;;;;;9.88;5.35;;;;;;;;;;8257256;28;20037;-77
2021/08/27 11:50:33;;;;;;;8.25;5.30;;;;;;;;;;8270562;28;20376;-77
2021/08/27 11:54:37;;;;;;;34.28;19.52;;;;;;;;;;8272126;28;20402;-77
2021/08/27 11:58:43;;;;;;;9.65;6.95;;;;;;;;;;8247619;28;20453;-77
2021/08/27 12:02:55;;;;;;;7.57;5.03;;;;;;;;;;8277121;28;20364;-76
2021/08/27 12:07:11;;;;;;;7.57;5.10;;;;;;;;;;8271389;28;20471;-77
2021/08/27 12:11:30;;;;;;;9.18;5.63;;;;;;;;;;8271400;28;20441;-76
2021/08/27 12:15:39;;;;;;;7.57;5.03;;;;;;;;;;8267756;28;20394;-78
2021/08/27 12:19:43;;;;;;;14.18;7.68;;;;;;;;;;8295673;28;20048;-77
2021/08/27 12:24:08;;;;;;;6.90;5.30;;;;;;;;;;8299851;28;20451;-77
2021/08/27 12:28:16;;;;;;;7.47;5.18;;;;;;;;;;8298375;28;20070;-77
2021/08/27 12:32:20;;;;;;;8.35;4.20;;;;;;;;;;8279456;28;20468;-76
2021/08/27 12:36:26;;;;;;;6.80;4.72;;;;;;;;;;8271797;28;20497;-77
2021/08/27 12:40:32;;;;;;;14.88;8.65;;;;;;;;;;8269915;28;20448;-77
2021/08/27 12:44:36;;;;;;;47.28;17.73;;;;;;;;;;8264641;28;20486;-78
2021/08/27 12:48:41;;;;;;;11.82;7.07;;;;;;;;;;8272537;28;20438;-77
2021/08/27 12:53:03;;;;;;;14.77;9.82;;;;;;;;;;8247665;28;20476;-77
2021/08/27 12:57:08;;;;;;;12.90;5.70;;;;;;;;;;8260523;28;20369;-77
2021/08/27 13:01:25;;;;;;;8.43;5.60;;;;;;;;;;8265667;28;20392;-77
2021/08/27 13:05:39;;;;;;;;;;;;;;;;;;8232565;28;20337;-76
2021/08/27 13:09:44;;;;;;;5.13;3.67;;;;;;;;;;8281741;28;19942;-77
2021/08/27 13:13:48;;;;;;;5.25;3.88;;;;;;;;;;8293393;28;20052;-76
2021/08/27 13:18:04;;;;;;;6.97;3.30;;;;;;;;;;8275653;28;20448;-76
2021/08/27 13:22:13;;;;;;;4.47;3.38;;;;;;;;;;8270621;28;20539;-76
2021/08/27 13:26:22;;;;;;;4.95;3.70;;;;;;;;;;8278162;28;20475;-76
2021/08/27 13:30:26;;;;;;;6.95;3.97;;;;;;;;;;8279957;28;20056;-77
2021/08/27 13:34:30;;;;;;;5.50;3.50;;;;;;;;;;8258882;28;20425;-76
2021/08/27 13:38:34;;;;;;;5.10;3.47;;;;;;;;;;8260343;28;20045;-76
2021/08/27 13:42:39;;;;;;;4.25;3.20;;;;;;;;;;8256955;28;20353;-76
2021/08/27 13:46:44;;;;;;;4.40;3.13;;;;;;;;;;8259830;28;20392;-77
2021/08/27 13:50:49;;;;;;;7.97;5.07;;;;;;;;;;8259926;28;20500;-75
2021/08/27 13:54:55;;;;;;;8.70;4.25;;;;;;;;;;8243050;28;20049;-75
2021/08/27 13:59:01;;;;;;;7.85;3.42;;;;;;;;;;8241965;28;20452;-76
2021/08/27 14:03:08;;;;;;;4.85;3.08;;;;;;;;;;8259418;28;20460;-75
2021/08/27 14:07:15;;;;;;;6.10;3.00;;;;;;;;;;8259390;28;20383;-76
2021/08/27 14:11:21;;;;;;;6.63;3.15;;;;;;;;;;8257542;28;20377;-76
2021/08/27 14:15:30;;;;;;;4.78;3.10;;;;;;;;;;8259255;28;20052;-76
2021/08/27 14:19:35;;;;;;;5.30;3.08;;;;;;;;;;8258888;28;20380;-76
2021/08/27 14:23:41;;;;;;;5.40;3.03;;;;;;;;;;8257720;28;20471;-76
2021/08/27 14:27:46;;;;;;;8.35;2.78;;;;;;;;;;8257804;28;20483;-76
2021/08/27 14:31:51;;;;;;;7.03;3.60;;;;;;;;;;8259098;28;20456;-75
2021/08/27 14:35:56;;;;;;;9.45;3.20;;;;;;;;;;8260049;28;20436;-76
2021/08/27 14:40:01;;;;;;;7.25;4.00;;;;;;;;;;8272491;28;20041;-75
2021/08/27 14:44:16;;;;;;;6.88;4.30;;;;;;;;;;8258460;28;20571;-75
2021/08/27 14:48:21;;;;;;;9.70;4.55;;;;;;;;;;8272092;28;20104;-76
2021/08/27 14:52:26;;;;;;;10.55;3.75;;;;;;;;;;8258551;28;20406;-75
2021/08/27 14:56:31;;;;;;;11.23;4.53;;;;;;;;;;8240108;28;20387;-75
2021/08/27 15:00:36;;;;;;;10.18;4.20;;;;;;;;;;8256323;28;20460;-76
2021/08/27 15:04:42;;;;;;;7.75;5.00;;;;;;;;;;8258044;28;20483;-75
2021/08/27 15:08:47;;;;;;;11.48;4.80;;;;;;;;;;8256865;28;20075;-75
2021/08/27 15:12:53;;;;;;;9.10;4.85;;;;;;;;;;8258887;28;20049;-75
2021/08/27 15:16:58;;;;;;;8.48;4.13;;;;;;;;;;8256234;28;20467;-75
2021/08/27 15:21:03;;;;;;;6.28;4.00;;;;;;;;;;8256858;28;20471;-75
2021/08/27 15:25:09;;;;;;;6.57;4.13;;;;;;;;;;8257131;28;20095;-75
2021/08/27 15:29:14;;;;;;;8.98;4.20;;;;;;;;;;8257665;28;20063;-75
2021/08/27 15:33:20;;;;;;;8.55;4.30;;;;;;;;;;8256788;28;20037;-76
2021/08/27 15:37:28;;;;;;;8.70;3.90;;;;;;;;;;8258562;28;20364;-75
2021/08/27 15:41:33;;;;;;;9.00;3.97;;;;;;;;;;8255424;28;20479;-75
2021/08/27 15:45:39;;;;;;;9.23;4.68;;;;;;;;;;8258811;28;20045;-75
2021/08/27 15:49:44;;;;;;;8.73;3.92;;;;;;;;;;8238868;28;20052;-75
2021/08/27 15:53:52;;;;;;;9.77;4.68;;;;;;;;;;8260732;28;20468;-75
2021/08/27 15:57:58;;;;;;;;;;;;;;;;;;8263366;28;20498;-76
2021/08/27 16:02:03;;;;;;;20.58;10.32;;;;;;;;;;8263241;28;19944;-75
2021/08/27 16:06:08;;;;;;;9.93;5.50;;;;;;;;;;8264074;28;20474;-75
2021/08/27 16:10:13;;;;;;;8.75;4.43;;;;;;;;;;8263135;28;20487;-75
2021/08/27 16:14:20;;;;;;;13.48;4.28;;;;;;;;;;8262418;28;20074;-76
2021/08/27 16:18:26;;;;;;;7.10;4.05;;;;;;;;;;8262918;28;20340;-75
2021/08/27 16:22:32;;;;;;;6.55;3.30;;;;;;;;;;8263724;28;20457;-75
2021/08/27 16:26:38;;;;;;;6.90;2.90;;;;;;;;;;8244765;28;20390;-76
2021/08/27 16:30:45;;;;;;;3.08;1.88;;;;;;;;;;8276295;28;20391;-75
2021/08/27 16:34:51;;;;;;;4.05;2.17;;;;;;;;;;8276933;28;20068;-75
2021/08/27 16:38:56;;;;;;;3.95;2.45;;;;;;;;;;8262743;28;20045;-75
2021/08/27 16:43:02;;;;;;;10.27;5.13;;;;;;;;;;8275980;28;20472;-75
2021/08/27 16:47:07;;;;;;;21.35;8.73;;;;;;;;;;8276713;28;20375;-75
2021/08/27 16:51:12;;;;;;;31.67;11.05;;;;;;;;;;8259657;28;20472;-75
2021/08/27 16:55:18;;;;;;;73.47;24.60;;;;;;;;;;8260266;28;20049;-75
2021/08/27 16:59:23;;;;;;;69.53;24.60;;;;;;;;;;8260721;28;20341;-75
2021/08/27 17:03:28;;;;;;;38.42;13.50;;;;;;;;;;8260577;28;20343;-75
2021/08/27 17:07:34;;;;;;;47.67;18.17;;;;;;;;;;8259684;28;20475;-75
2021/08/27 17:11:39;;;;;;;40.67;16.92;;;;;;;;;;8259128;28;20071;-75
2021/08/27 17:15:44;;;;;;;21.27;7.57;;;;;;;;;;8260968;28;20211;-75
2021/08/27 17:19:49;;;;;;;33.22;11.07;;;;;;;;;;8261401;28;20326;-75
2021/08/27 17:23:54;;;;;;;21.48;10.07;;;;;;;;;;8261117;28;20472;-75
2021/08/27 17:27:59;;;;;;;17.05;6.55;;;;;;;;;;8260978;28;20456;-76
2021/08/27 17:32:05;;;;;;;17.02;8.23;;;;;;;;;;8276248;28;20503;-75
2021/08/27 17:36:10;;;;;;;12.98;6.70;;;;;;;;;;8260879;28;20391;-75
2021/08/27 17:40:15;;;;;;;8.95;4.63;;;;;;;;;;8259875;28;20345;-75
2021/08/27 17:44:21;;;;;;;13.35;6.80;;;;;;;;;;8260628;28;20522;-75
2021/08/27 17:48:26;;;;;;;12.82;5.55;;;;;;;;;;8261226;28;20380;-75
2021/08/27 17:52:31;;;;;;;16.88;7.45;;;;;;;;;;8260263;28;20480;-74
2021/08/27 17:56:36;;;;;;;14.60;7.10;;;;;;;;;;8274087;28;20482;-75
2021/08/27 18:00:42;;;;;;;9.90;6.25;;;;;;;;;;8257424;28;20049;-75
2021/08/27 18:04:47;;;;;;;23.45;11.57;;;;;;;;;;8262552;28;20455;-75
2021/08/27 18:08:52;;;;;;;11.02;3.72;;;;;;;;;;8259133;28;20353;-74
2021/08/27 18:12:58;;;;;;;8.32;5.53;;;;;;;;;;8258558;28;20489;-75
2021/08/27 18:17:04;;;;;;;12.95;6.25;;;;;;;;;;8257357;28;20384;-75
2021/08/27 18:21:14;;;;;;;9.07;5.05;;;;;;;;;;8240896;28;20090;-75
2021/08/27 18:25:19;;;;;;;11.90;5.25;;;;;;;;;;8259824;28;20067;-75
2021/08/27 18:29:24;;;;;;;7.10;4.32;;;;;;;;;;8256859;28;20045;-75
2021/08/27 18:33:30;;;;;;;8.70;4.97;;;;;;;;;;8259650;28;20325;-75
2021/08/27 18:37:35;;;;;;;12.57;6.00;;;;;;;;;;8240628;28;20363;-75
2021/08/27 18:41:40;;;;;;;9.38;5.10;;;;;;;;;;8258400;28;20464;-76
2021/08/27 18:45:46;;;;;;;8.10;4.50;;;;;;;;;;8271292;28;20053;-74
2021/08/27 18:49:52;;;;;;;10.60;4.45;;;;;;;;;;8258146;28;20372;-76
2021/08/27 18:53:57;;;;;;;10.32;5.00;;;;;;;;;;8240637;28;20483;-75
2021/08/27 18:58:02;;;;;;;9.38;5.35;;;;;;;;;;8257471;28;20480;-75
2021/08/27 19:02:07;;;;;;;16.48;7.47;;;;;;;;;;8260221;28;20444;-74
2021/08/27 19:06:13;;;;;;;41.05;18.83;;;;;;;;;;8256594;28;20488;-74
2021/08/27 19:10:18;;;;;;;38.20;16.08;;;;;;;;;;8256370;28;20399;-75
2021/08/27 19:14:24;;;;;;;22.65;8.60;;;;;;;;;;8254971;28;20357;-75
2021/08/27 19:18:28;;;;;;;10.68;6.65;;;;;;;;;;8257409;28;20349;-74
2021/08/27 19:22:33;;;;;;;7.78;5.70;;;;;;;;;;8257689;28;20340;-75
2021/08/27 19:26:39;;;;;;;14.80;8.55;;;;;;;;;;8256282;28;20045;-74
2021/08/27 19:30:44;;;;;;;64.97;27.45;;;;;;;;;;8257460;28;20075;-74
2021/08/27 19:34:49;;;;;;;39.38;18.20;;;;;;;;;;8256592;28;20345;-74
2021/08/27 19:38:54;;;;;;;49.15;19.13;;;;;;;;;;8257330;28;20468;-75
2021/08/27 19:43:00;;;;;;;25.92;10.90;;;;;;;;;;8256256;28;20045;-74
2021/08/27 19:47:05;;;;;;;22.45;10.68;;;;;;;;;;8256555;28;20357;-76
2021/08/27 19:51:10;;;;;;;16.77;9.40;;;;;;;;;;8256142;28;20053;-74
2021/08/27 19:55:16;;;;;;;28.85;12.30;;;;;;;;;;8257566;28;20350;-74
2021/08/27 19:59:21;;;;;;;13.63;7.80;;;;;;;;;;8258235;28;20456;-74
2021/08/27 20:03:26;;;;;;;12.45;5.57;;;;;;;;;;8257038;28;20368;-74
2021/08/27 20:07:31;;;;;;;7.00;5.28;;;;;;;;;;8215644;28;20445;-74
2021/08/27 20:11:37;;;;;;;12.40;5.15;;;;;;;;;;8244566;28;20463;-75
2021/08/27 20:15:42;;;;;;;20.10;11.30;;;;;;;;;;8255865;28;20490;-74
2021/08/27 20:19:47;;;;;;;61.78;25.65;;;;;;;;;;8256457;28;20490;-76
2021/08/27 20:23:52;;;;;;;17.33;6.45;;;;;;;;;;8256712;28;20488;-74
2021/08/27 20:27:58;;;;;;;11.07;5.95;;;;;;;;;;8258849;28;20338;-74
2021/08/27 20:32:03;;;;;;;14.23;6.30;;;;;;;;;;8254517;28;20483;-75
2021/08/27 20:36:09;;;;;;;8.45;4.60;;;;;;;;;;8258517;28;20041;-75
2021/08/27 20:40:16;;;;;;;13.48;4.20;;;;;;;;;;8259546;28;20479;-74
2021/08/27 20:44:21;;;;;;;9.80;4.68;;;;;;;;;;8261217;28;20384;-75
2021/08/27 20:48:26;;;;;;;13.23;5.57;;;;;;;;;;8261880;28;20356;-74
2021/08/27 20:52:31;;;;;;;11.85;7.13;;;;;;;;;;8260905;28;20060;-74
2021/08/27 20:56:36;;;;;;;9.88;4.18;;;;;;;;;;8261500;28;20041;-74
2021/08/27 21:00:41;;;;;;;14.45;4.80;;;;;;;;;;8259091;28;20383;-75
2021/08/27 21:04:47;;;;;;;11.13;4.53;;;;;;;;;;8263095;28;20044;-74
2021/08/27 21:08:52;;;;;;;6.40;4.13;;;;;;;;;;8260921;28;20498;-74
2021/08/27 21:12:57;;;;;;;9.45;4.38;;;;;;;;;;8230387;28;20515;-74
2021/08/27 21:17:02;;;;;;;15.43;7.85;;;;;;;;;;8242815;28;20084;-74
2021/08/27 21:21:08;;;;;;;9.15;5.63;;;;;;;;;;8226464;28;20411;-74
2021/08/27 21:25:13;;;;;;;13.88;6.65;;;;;;;;;;8226204;28;20503;-75
2021/08/27 21:29:18;;;;;;;7.30;3.65;;;;;;;;;;8227461;28;20372;-74
2021/08/27 21:33:23;;;;;;;11.50;4.90;;;;;;;;;;8229856;28;20468;-74
2021/08/27 21:37:29;;;;;;;8.45;4.65;;;;;;;;;;8226755;28;20068;-74
2021/08/27 21:41:34;;;;;;;7.13;4.57;;;;;;;;;;8226593;28;20483;-74
2021/08/27 21:45:40;;;;;;;14.38;5.05;;;;;;;;;;8228454;28;20480;-74
2021/08/27 21:49:45;;;;;;;7.95;4.15;;;;;;;;;;8227447;28;20461;-74
2021/08/27 21:53:50;;;;;;;9.95;4.63;;;;;;;;;;8225851;28;20364;-75
2021/08/27 21:57:55;;;;;;;9.38;4.22;;;;;;;;;;8225970;28;20464;-74
2021/08/27 22:02:00;;;;;;;8.43;4.90;;;;;;;;;;8227399;28;20349;-74
2021/08/27 22:06:06;;;;;;;10.80;5.53;;;;;;;;;;8228069;28;20327;-74
2021/08/27 22:10:12;;;;;;;11.05;6.13;;;;;;;;;;8226530;28;20482;-74
2021/08/27 22:14:17;;;;;;;9.18;4.50;;;;;;;;;;8240667;28;20400;-74
2021/08/27 22:18:21;;;;;;;13.35;8.20;;;;;;;;;;8228809;28;20384;-74
2021/08/27 22:22:27;;;;;;;8.07;4.88;;;;;;;;;;8226208;28;20472;-74
2021/08/27 22:26:32;;;;;;;9.05;5.07;;;;;;;;;;8225516;28;20346;-74
2021/08/27 22:30:42;;;;;;;6.50;4.22;;;;;;;;;;8225773;28;20068;-74
2021/08/27 22:34:48;;;;;;;15.77;4.80;;;;;;;;;;8225694;28;20049;-74
2021/08/27 22:38:52;;;;;;;7.53;4.57;;;;;;;;;;8225990;28;20377;-74
2021/08/27 22:42:58;;;;;;;13.20;7.15;;;;;;;;;;8225330;28;20404;-74
2021/08/27 22:47:03;;;;;;;19.23;12.25;;;;;;;;;;8226361;28;20351;-74
2021/08/27 22:51:11;;;;;;;9.07;6.40;;;;;;;;;;8227478;28;20071;-74
2021/08/27 22:55:15;;;;;;;9.10;4.85;;;;;;;;;;8225694;28;20337;-74
2021/08/27 22:59:20;;;;;;;8.15;5.25;;;;;;;;;;8225336;28;20341;-75
2021/08/27 23:03:24;;;;;;;13.05;4.15;;;;;;;;;;8225132;28;20357;-74
2021/08/27 23:07:30;;;;;;;12.05;4.38;;;;;;;;;;8225269;28;20376;-74
2021/08/27 23:11:35;;;;;;;9.18;3.78;;;;;;;;;;8224252;28;20380;-74
2021/08/27 23:15:40;;;;;;;8.70;4.68;;;;;;;;;;8223240;28;20506;-74
2021/08/27 23:19:45;;;;;;;10.10;3.97;;;;;;;;;;8225097;28;20330;-74
2021/08/27 23:23:49;;;;;;;6.40;4.05;;;;;;;;;;8226166;28;20348;-74
2021/08/27 23:27:55;;;;;;;8.93;3.65;;;;;;;;;;8226593;28;20433;-74
2021/08/27 23:32:00;;;;;;;7.00;3.53;;;;;;;;;;8224755;28;20357;-74
2021/08/27 23:36:05;;;;;;;10.52;3.85;;;;;;;;;;8224983;28;20326;-74
2021/08/27 23:40:11;;;;;;;7.45;3.60;;;;;;;;;;8239624;28;20365;-74
2021/08/27 23:44:15;;;;;;;9.68;3.75;;;;;;;;;;8224791;28;20376;-74
2021/08/27 23:48:20;;;;;;;5.07;3.50;;;;;;;;;;8224108;28;20356;-75
2021/08/27 23:52:27;;;;;;;5.18;3.40;;;;;;;;;;8224357;28;20401;-74
2021/08/27 23:56:32;;;;;;;4.57;3.15;;;;;;;;;;8225163;28;20467;-74
